• Join FlightAware (Why Join?)
  • Login
  • US Flag 
07:59AM EDT


 

Airport Tracker/Info


-or-


 

Live Flight TrackerFlight Track Log ✈ AFL150 ✈ 22-Apr-2014 ✈ UUEE / SVO - MUHA / HAV

Flight Track Log - Related Links

Times and Time Zones

All times are in EDT time to prevent confusion due to time zone crossing. See the AFL150 flight status page for this flight to view local times or setup timezone preferences in your user account.

Time Position Orientation Groundspeed Altitude Reporting Facility
EDT Latitude Longitude Course Direction KTS MPH feet Rate Location/Type
06:27AM 56.2291 36.6227 307° West  Level Estimated
06:28AM 56.3034 36.4393 306° West  Level Estimated
06:29AM 56.3774 36.2552 306° West  Level Estimated
06:30AM 56.4511 36.0703 306° West  Level Estimated
06:31AM 56.5245 35.8848 306° West  Level Estimated
06:32AM 56.5977 35.6985 306° West  Level Estimated
06:33AM 56.6706 35.5115 305° West  Level Estimated
06:34AM 56.7432 35.3237 305° West  Level Estimated
06:35AM 56.8155 35.1353 305° West  Level Estimated
06:36AM 56.8876 34.9461 305° West  Level Estimated
06:37AM 56.9593 34.7562 305° West  Level Estimated
06:38AM 57.0308 34.5655 305° West  Level Estimated
06:39AM 57.1019 34.3741 304° West  Level Estimated
06:40AM 57.1728 34.1820 304° West  Level Estimated
06:41AM 57.2434 33.9892 304° West  Level Estimated
06:42AM 57.3137 33.7956 304° West  Level Estimated
06:43AM 57.3837 33.6013 304° West  Level Estimated
06:44AM 57.4533 33.4062 304° West  Level Estimated
06:45AM 57.5227 33.2104 303° West  Level Estimated
06:46AM 57.5918 33.0138 303° West  Level Estimated
06:47AM 57.6606 32.8165 303° West  Level Estimated
06:48AM 57.7290 32.6185 303° West  Level Estimated
06:49AM 57.7972 32.4197 303° West  Level Estimated
06:50AM 57.8650 32.2201 303° West  Level Estimated
06:51AM 57.9326 32.0198 302° West  Level Estimated
06:51AM 56.5153 31.5682 278° West 463 533 34,000  Level FlightAware ADS-B (EVDA / DGP)
06:52AM 56.5312 31.3675 279° West 463 533 34,000  Level FlightAware ADS-B (EVDA / DGP)
06:53AM 56.5666 31.1313 291° West 465 535 34,000  Level FlightAware ADS-B (EVDA / DGP)
06:54AM 56.6254 30.9243 304° West 467 537 34,000  Level FlightAware ADS-B (EVDA / DGP)
06:55AM 56.7250 30.6962 306° West 467 537 34,000  Level FlightAware ADS-B (EVDA / DGP)
06:56AM 56.7970 30.5065 305° West 467 537 34,000  Level FlightAware ADS-B (EVDA / DGP)
06:57AM 56.8477 30.3714 304° West 469 540 34,000  Level FlightAware ADS-B (EVDA / DGP)
06:58AM 56.9447 30.1076 304° West 471 542 34,000  Level FlightAware ADS-B (EVDA / DGP)
06:59AM 57.0135 29.9186 304° West 469 540 34,000  Level FlightAware ADS-B (EVDA / DGP)
07:00AM 57.0844 29.7219 304° West 468 539 34,000  Level FlightAware ADS-B (EVDA / DGP)
07:01AM 57.1576 29.5178 303° West 467 537 34,000  Level FlightAware ADS-B (EVDA / DGP)
07:02AM 57.2295 29.3153 303° West 464 534 34,000  Level FlightAware ADS-B (EVDA / DGP)
07:03AM 57.2978 29.1215 303° West 459 528 34,000  Level FlightAware ADS-B (EVDA / DGP)
07:04AM 57.3666 28.9251 303° West 457 526 34,000  Level FlightAware ADS-B (EVDA / DGP)
07:05AM 57.4347 28.7287 303° West 457 526 34,000  Level FlightAware ADS-B (EVDA / DGP)
07:06AM 57.5044 28.5260 303° West 458 527 34,000  Level FlightAware ADS-B (EVDA / DGP)
07:07AM 57.5720 28.3280 302° West 458 527 34,000  Level FlightAware ADS-B (EVDA / DGP)
07:08AM 57.6480 28.1032 302° West 456 525 34,000  Level FlightAware ADS-B (EVDA / DGP)
07:09AM 57.6649 28.0531 302° West 454 522 34,000  Level FlightAware ADS-B (EVDA / DGP)
07:10AM 57.7229 27.8801 302° West 456 525 34,000  Level FlightAware ADS-B (EVDA / DGP)
07:10AM 57.7805 27.7066 302° West 458 527 34,000  Level FlightAware ADS-B (EVDA / DGP)
07:11AM 57.8453 27.4930 290° West 460 529 34,000  Level FlightAware ADS-B (EVDA / DGP)
07:12AM 57.8894 27.2705 291° West 459 528 34,000  Level FlightAware ADS-B (EVDA / DGP)
07:14AM 57.9430 27.0036 291° West 460 529 34,000  Level FlightAware ADS-B (EVDA / DGP)
07:15AM 57.9968 26.7327 290° West 462 532 34,000  Level FlightAware ADS-B (EVDA / DGP)
07:16AM 58.0408 26.5088 290° West 461 531 34,000  Level FlightAware ADS-B (EVDA / DGP)
07:17AM 58.0854 26.2789 290° West 461 531 34,000  Level FlightAware ADS-B (EVDA / DGP)
07:18AM 58.1282 26.0553 290° West 460 529 34,000  Level FlightAware ADS-B (EVDA / DGP)
07:19AM 58.1711 25.8288 290° West 461 531 34,000  Level FlightAware ADS-B (EVDA / DGP)
07:20AM 58.2141 25.5994 290° West 459 528 34,000  Level FlightAware ADS-B (EVDA / DGP)
07:21AM 58.2562 25.3718 289° West 459 528 34,000  Level FlightAware ADS-B (EVDA / DGP)
07:22AM 58.2948 25.1608 289° West 460 529 34,000  Level FlightAware ADS-B (EFHN)
07:22AM 58.3165 25.0410 289° West 462 532 34,000  Level FlightAware ADS-B (EFHN)
07:23AM 58.3308 24.9619 289° West 462 532 34,000  Level FlightAware ADS-B (EVDA / DGP)
07:23AM 58.3648 24.7715 289° West 460 529 34,000  Level FlightAware ADS-B (EFHN)
07:24AM 58.3852 24.6573 289° West 460 529 34,000  Level FlightAware ADS-B (EFHN)
07:25AM 58.4070 24.5338 289° West 460 529 34,000  Level FlightAware ADS-B (EFHN)
07:27AM 58.4839 24.0359 286° West 460 529 34,000  Level FlightAware ADS-B (EFHN)
07:27AM 58.5135 23.8364 286° West 460 529 34,000  Level FlightAware ADS-B (EFHN)
07:29AM 58.5729 23.4315 285° West 463 533 34,000  Level FlightAware ADS-B (EFHN)
07:31AM 58.6439 22.9320 285° West 462 532 34,000  Level FlightAware ADS-B (EFHN)
07:32AM 58.6647 22.7830 285° West 462 532 34,000  Level FlightAware ADS-B (EFHN)
07:32AM 58.6821 22.6565 285° West 462 532 34,000  Level FlightAware ADS-B (EFHN)
07:33AM 58.7038 22.4984 285° West 462 532 34,000  Level FlightAware ADS-B (EFHN)
07:34AM 58.7249 22.3430 285° West 462 532 34,000  Level FlightAware ADS-B (EFHN)
07:34AM 58.7462 22.1838 284° West 462 532 34,000  Level FlightAware ADS-B (EFHN)
07:35AM 58.7761 21.9576 284° West 461 531 34,000  Level FlightAware ADS-B (EFHN)
07:36AM 58.8082 21.7106 284° West 462 532 34,000  Level FlightAware ADS-B (EFHN)
07:38AM 58.8418 21.4482 284° West 463 533 34,000  Level FlightAware ADS-B (ESKB)
07:38AM 58.8621 21.2888 284° West 463 533 34,000 60 Level FlightAware ADS-B (EFHN)
07:41AM 58.9884 20.5271 287° West 464 534 34,300 180 Climbing FlightAware ADS-B (ESKB)
07:42AM 59.0257 20.5474 293° West  Level Estimated
07:42AM 59.0173 20.3481 287° West 466 536 34,800  Level FlightAware ADS-B (ESKB)
07:43AM 59.0439 20.1806 287° West 467 537 35,300 780 Climbing FlightAware ADS-B (ESKB)
07:44AM 59.0690 20.0233 287° West 464 534 35,900 480 Climbing FlightAware ADS-B (ESKB)
07:44AM 59.0949 19.8577 287° West 464 534 36,000 60 Climbing FlightAware ADS-B (ESKB)
07:45AM 59.1189 19.7026 287° West 463 533 36,000  Level FlightAware ADS-B (ESKB)
07:46AM 59.1426 19.5494 287° West 462 532 36,000  Level FlightAware ADS-B (ESKB)
07:46AM 59.1678 19.3832 286° West 462 532 36,000  Level FlightAware ADS-B (ESKB)
07:47AM 59.1914 19.2270 286° West 462 532 36,000  Level FlightAware ADS-B (ESKB)
07:48AM 59.2160 19.0623 286° West 461 531 36,000  Level FlightAware ADS-B (ESKB)
07:49AM 59.2516 18.8210 286° West 463 533 36,000  Level FlightAware ADS-B (ESKB)
07:49AM 59.2746 18.6627 286° West 465 535 36,000  Level FlightAware ADS-B (ESKB)
07:50AM 59.2975 18.5042 286° West 465 535 36,000  Level FlightAware ADS-B (ESKB)
07:51AM 59.3209 18.3410 286° West 467 537 36,000  Level FlightAware ADS-B (ESKB)
07:51AM 59.3445 18.1740 285° West 468 539 36,000  Level FlightAware ADS-B (ESKB)
07:52AM 59.3664 18.0177 285° West 467 537 36,000  Level FlightAware ADS-B (ESKB)
07:53AM 59.3891 17.8545 285° West 466 536 36,000  Level FlightAware ADS-B (ESKB)
07:53AM 59.4122 17.6860 285° West 467 537 36,000  Level FlightAware ADS-B (ESKB)
07:54AM 59.4341 17.5243 285° West 466 536 36,000  Level FlightAware ADS-B (ESKB)
07:55AM 59.4537 17.3790 285° West 466 536 36,000  Level FlightAware ADS-B (ESKB)
07:55AM 59.4774 17.2004 285° West 466 536 36,000  Level FlightAware ADS-B (ESKB)
07:56AM 59.4931 17.0816 284° West 467 537 36,000  Level FlightAware ADS-B (ESKB)
07:57AM 59.5210 16.8672 284° West 467 537 36,000  Level FlightAware ADS-B (ESKB)
07:57AM 59.5419 16.7056 284° West 469 540 36,000  Level FlightAware ADS-B (ESKB)
07:58AM 59.5609 16.5562 284° West 471 542 36,000  Level FlightAware ADS-B (ESKB)
07:59AM 59.5842 16.3702 284° West 471 542 36,000  Level FlightAware ADS-B (ESKB)
07:59AM 59.6012 16.2332 284° West 472 543 36,000  Level FlightAware ADS-B (ESKB)
08:00AM 59.6385 15.9296 283° West 474 545 36,000  Level FlightAware ADS-B (ESKB)
08:03AM 59.7255 15.4211 289° West  Level Estimated
08:04AM 59.7653 15.1837 289° West  Level Estimated
08:05AM 59.8046 14.9458 288° West  Level Estimated
08:06AM 59.8436 14.7073 288° West  Level Estimated
08:07AM 59.8820 14.4682 288° West  Level Estimated
08:08AM 59.9201 14.2285 288° West  Level Estimated
08:09AM 59.9577 13.9884 287° West  Level Estimated
08:10AM 59.9949 13.7477 287° West  Level Estimated
08:11AM 60.0317 13.5064 287° West  Level Estimated
08:12AM 60.0680 13.2646 287° West  Level Estimated
08:13AM 60.1039 13.0223 287° West  Level Estimated
08:14AM 60.1393 12.7794 286° West  Level Estimated
08:15AM 60.1743 12.5361 286° West  Level Estimated
08:16AM 60.2088 12.2922 286° West  Level Estimated
08:17AM 60.2429 12.0478 286° West  Level Estimated
08:18AM 60.2765 11.8029 286° West  Level Estimated
08:19AM 60.3097 11.5575 285° West  Level Estimated
08:20AM 60.3425 11.3116 285° West  Level Estimated
08:21AM 60.3747 11.0652 285° West  Level Estimated
08:22AM 60.4066 10.8183 285° West  Level Estimated
08:23AM 60.4379 10.5710 285° West  Level Estimated
08:24AM 60.4688 10.3231 284° West  Level Estimated
08:25AM 60.4993 10.0749 284° West  Level Estimated
08:26AM 60.5293 9.8261 284° West  Level Estimated
08:27AM 60.5588 9.5769 284° West  Level Estimated
08:28AM 60.5878 9.3272 283° West  Level Estimated
08:29AM 60.6164 9.0771 283° West  Level Estimated
08:30AM 60.6445 8.8265 283° West  Level Estimated
08:31AM 60.6722 8.5756 283° West  Level Estimated
08:32AM 60.6994 8.3241 283° West  Level Estimated
08:33AM 60.7261 8.0723 282° West  Level Estimated
08:34AM 60.7523 7.8200 282° West  Level Estimated
08:35AM 60.7781 7.5674 282° West  Level Estimated
08:36AM 60.8033 7.3143 282° West  Level Estimated
08:37AM 60.8282 7.0609 281° West  Level Estimated
08:38AM 60.8525 6.8070 281° West  Level Estimated
08:39AM 60.8763 6.5528 281° West  Level Estimated
08:40AM 60.8997 6.2982 281° West  Level Estimated
08:41AM 60.9226 6.0432 281° West  Level Estimated
08:42AM 60.9450 5.7878 280° West  Level Estimated
08:43AM 60.9669 5.5321 280° West  Level Estimated
08:44AM 60.9884 5.2761 280° West  Level Estimated
08:45AM 61.0093 5.0197 280° West  Level Estimated
08:46AM 61.0298 4.7630 279° West  Level Estimated
08:47AM 61.0498 4.5059 279° West  Level Estimated
08:48AM 61.0693 4.2485 279° West  Level Estimated
08:49AM 61.0883 3.9909 279° West  Level Estimated
08:50AM 61.1068 3.7329 279° West  Level Estimated
08:51AM 61.1248 3.4746 278° West  Level Estimated
08:52AM 61.1423 3.2160 278° West  Level Estimated
08:53AM 61.1593 2.9571 278° West  Level Estimated
08:54AM 61.1759 2.6980 278° West  Level Estimated
08:55AM 61.1919 2.4386 277° West  Level Estimated
08:56AM 61.2074 2.1789 277° West  Level Estimated
08:57AM 61.2225 1.9190 277° West  Level Estimated
08:58AM 61.2370 1.6589 277° West  Level Estimated
08:59AM 61.2511 1.3985 277° West  Level Estimated
09:00AM 61.2646 1.1378 276° West  Level Estimated
09:01AM 61.2777 0.8770 276° West  Level Estimated
09:02AM 61.2902 0.6159 276° West  Level Estimated
09:03AM 61.3023 0.3547 276° West  Level Estimated
09:04AM 61.3138 0.0932 275° West  Level Estimated
09:05AM 61.3249 -0.1685 275° West  Level Estimated
09:06AM 61.3354 -0.4303 275° West  Level Estimated
09:07AM 61.3454 -0.6923 275° West  Level Estimated
09:08AM 61.3550 -0.9545 274° West  Level Estimated
09:09AM 61.3640 -1.2168 274° West  Level Estimated
09:10AM 61.3725 -1.4792 274° West  Level Estimated
09:11AM 61.3805 -1.7419 274° West  Level Estimated
09:12AM 61.3880 -2.0046 274° West  Level Estimated
09:13AM 61.3950 -2.2675 273° West  Level Estimated
09:14AM 61.4015 -2.5304 273° West  Level Estimated
09:15AM 61.4075 -2.7935 273° West  Level Estimated
09:16AM 61.4130 -3.0567 273° West  Level Estimated
09:17AM 61.4179 -3.3200 272° West  Level Estimated
09:18AM 61.4224 -3.5833 272° West  Level Estimated
09:19AM 61.4264 -3.8467 272° West  Level Estimated
09:20AM 61.4298 -4.1102 272° West  Level Estimated
09:21AM 61.4327 -4.3737 271° West  Level Estimated
09:22AM 61.4352 -4.6373 271° West  Level Estimated
09:23AM 61.4371 -4.9009 271° West  Level Estimated
09:24AM 61.4385 -5.1645 271° West  Level Estimated
09:25AM 61.4394 -5.4282 271° West  Level Estimated
09:26AM 61.4398 -5.6919 270° West  Level Estimated
09:27AM 61.4397 -5.9556 270° West  Level Estimated
09:28AM 61.4390 -6.2192 270° West  Level Estimated
09:29AM 61.4379 -6.4829 270° West  Level Estimated
09:30AM 61.4362 -6.7465 269° West  Level Estimated
09:31AM 61.4341 -7.0101 269° West  Level Estimated
09:32AM 61.4314 -7.2737 269° West  Level Estimated
09:33AM 61.4282 -7.5372 269° West  Level Estimated
09:34AM 61.4245 -7.8006 268° West  Level Estimated
09:35AM 61.4203 -8.0640 268° West  Level Estimated
09:36AM 61.4156 -8.3273 268° West  Level Estimated
09:37AM 61.4104 -8.5905 268° West  Level Estimated
09:38AM 61.4047 -8.8537 268° West  Level Estimated
09:39AM 61.3985 -9.1167 267° West  Level Estimated
09:40AM 61.3917 -9.3796 267° West  Level Estimated
09:41AM 61.3845 -9.6424 267° West  Level Estimated
09:42AM 61.3768 -9.9051 267° West  Level Estimated
09:43AM 61.3685 -10.1676 266° West  Level Estimated
09:44AM 61.3597 -10.4300 266° West  Level Estimated
09:45AM 61.3505 -10.6923 266° West  Level Estimated
09:46AM 61.3407 -10.9544 266° West  Level Estimated
09:47AM 61.3304 -11.2163 265° West  Level Estimated
09:48AM 61.3196 -11.4780 265° West  Level Estimated
09:49AM 61.3084 -11.7396 265° West  Level Estimated
09:50AM 61.2966 -12.0010 265° West  Level Estimated
09:51AM 61.2843 -12.2621 265° West  Level Estimated
09:52AM 61.2715 -12.5231 264° West  Level Estimated
09:53AM 61.2582 -12.7838 264° West  Level Estimated
09:54AM 61.2444 -13.0444 264° West  Level Estimated
09:55AM 61.2301 -13.3047 264° West  Level Estimated
09:56AM 61.2154 -13.5647 263° West  Level Estimated
09:57AM 61.2001 -13.8245 263° West  Level Estimated
09:58AM 61.1843 -14.0841 263° West  Level Estimated
09:59AM 61.1680 -14.3433 263° West  Level Estimated
10:00AM 61.1513 -14.6023 262° West  Level Estimated
10:01AM 61.1340 -14.8611 262° West  Level Estimated
10:02AM 61.1162 -15.1195 262° West  Level Estimated
10:03AM 61.0980 -15.3777 262° West  Level Estimated
10:04AM 61.0792 -15.6355 262° West  Level Estimated
10:05AM 61.0600 -15.8930 261° West  Level Estimated
10:06AM 61.0403 -16.1502 261° West  Level Estimated
10:07AM 61.0201 -16.4072 261° West  Level Estimated
10:08AM 60.9994 -16.6637 261° West  Level Estimated
10:09AM 60.9782 -16.9199 260° West  Level Estimated
10:10AM 60.9565 -17.1758 260° West  Level Estimated
10:11AM 60.9344 -17.4314 260° West  Level Estimated
10:12AM 60.9117 -17.6865 260° West  Level Estimated
10:13AM 60.8886 -17.9413 260° West  Level Estimated
10:14AM 60.8650 -18.1958 259° West  Level Estimated
10:15AM 60.8409 -18.4498 259° West  Level Estimated
10:16AM 60.8164 -18.7035 259° West  Level Estimated
10:17AM 60.7913 -18.9568 259° West  Level Estimated
10:18AM 60.7658 -19.2096 258° West  Level Estimated
10:19AM 60.7398 -19.4621 258° West  Level Estimated
10:20AM 60.7134 -19.7141 258° West  Level Estimated
10:21AM 60.6864 -19.9658 258° West  Level Estimated
10:22AM 60.6590 -20.2170 258° West  Level Estimated
10:23AM 60.6312 -20.4678 257° West  Level Estimated
10:24AM 60.6028 -20.7181 257° West  Level Estimated
10:25AM 60.5740 -20.9680 257° West  Level Estimated
10:26AM 60.5447 -21.2175 257° West  Level Estimated
10:27AM 60.5150 -21.4665 256° West  Level Estimated
10:28AM 60.4848 -21.7150 256° West  Level Estimated
10:29AM 60.4541 -21.9631 256° West  Level Estimated
10:30AM 60.4230 -22.2107 256° West  Level Estimated
10:31AM 60.3914 -22.4578 256° West  Level Estimated
10:32AM 60.3594 -22.7045 255° West  Level Estimated
10:33AM 60.3269 -22.9506 255° West  Level Estimated
10:34AM 60.2939 -23.1963 255° West  Level Estimated
10:35AM 60.2605 -23.4414 255° West  Level Estimated
10:36AM 60.2267 -23.6861 255° West  Level Estimated
10:37AM 60.1924 -23.9302 254° West  Level Estimated
10:38AM 60.1576 -24.1739 254° West  Level Estimated
10:39AM 60.1224 -24.4170 254° West  Level Estimated
10:40AM 60.0868 -24.6596 254° West  Level Estimated
10:41AM 60.0507 -24.9017 253° West  Level Estimated
10:42AM 60.0142 -25.1432 253° West  Level Estimated
10:43AM 59.9772 -25.3842 253° West  Level Estimated
10:44AM 59.9398 -25.6247 253° West  Level Estimated
10:45AM 59.9020 -25.8646 253° West  Level Estimated
10:46AM 59.8637 -26.1040 252° West  Level Estimated
10:47AM 59.8250 -26.3428 252° West  Level Estimated
10:48AM 59.7859 -26.5810 252° West  Level Estimated
10:49AM 59.7463 -26.8187 252° West  Level Estimated
10:50AM 59.7063 -27.0558 252° West  Level Estimated
10:51AM 59.6659 -27.2924 251° West  Level Estimated
10:52AM 59.6250 -27.5284 251° West  Level Estimated
10:53AM 59.5838 -27.7638 251° West  Level Estimated
10:54AM 59.5421 -27.9986 251° West  Level Estimated
10:55AM 59.5000 -28.2329 251° West  Level Estimated
10:56AM 59.4574 -28.4666 250° West  Level Estimated
10:57AM 59.4145 -28.6996 250° West  Level Estimated
10:58AM 59.3711 -28.9321 250° West  Level Estimated
10:59AM 59.3274 -29.1640 250° West  Level Estimated
11:00AM 59.2832 -29.3953 250° West  Level Estimated
11:01AM 59.2386 -29.6259 249° West  Level Estimated
11:02AM 59.1936 -29.8560 249° West  Level Estimated
11:03AM 59.1482 -30.0855 249° West  Level Estimated
11:04AM 59.1024 -30.3143 249° West  Level Estimated
11:05AM 59.0562 -30.5426 249° West  Level Estimated
11:06AM 59.0095 -30.7702 248° West  Level Estimated
11:07AM 58.9626 -30.9972 248° West  Level Estimated
11:08AM 58.9151 -31.2236 248° West  Level Estimated
11:09AM 58.8673 -31.4494 248° West  Level Estimated
11:10AM 58.8191 -31.6745 248° West  Level Estimated
11:11AM 58.7706 -31.8990 247° West  Level Estimated
11:12AM 58.7216 -32.1229 247° West  Level Estimated
11:13AM 58.6722 -32.3462 247° West  Level Estimated
11:14AM 58.6225 -32.5688 247° West  Level Estimated
11:15AM 58.5724 -32.7908 247° West  Level Estimated
11:16AM 58.5219 -33.0121 246° West  Level Estimated
11:17AM 58.4710 -33.2328 246° West  Level Estimated
11:18AM 58.4197 -33.4529 246° West  Level Estimated
11:19AM 58.3681 -33.6723 246° West  Level Estimated
11:20AM 58.3161 -33.8911 246° West  Level Estimated
11:21AM 58.2637 -34.1092 246° West  Level Estimated
11:22AM 58.2109 -34.3267 245° Southwest  Level Estimated
11:23AM 58.1578 -34.5435 245° Southwest  Level Estimated
11:24AM 58.1043 -34.7597 245° Southwest  Level Estimated
11:25AM 58.0504 -34.9753 245° Southwest  Level Estimated
11:26AM 57.9962 -35.1902 245° Southwest  Level Estimated
11:27AM 57.9416 -35.4044 244° Southwest  Level Estimated
11:28AM 57.8867 -35.6180 244° Southwest  Level Estimated
11:29AM 57.8314 -35.8309 244° Southwest  Level Estimated
11:30AM 57.7757 -36.0432 244° Southwest  Level Estimated
11:31AM 57.7197 -36.2548 244° Southwest  Level Estimated
11:32AM 57.6634 -36.4658 244° Southwest  Level Estimated
11:33AM 57.6067 -36.6761 243° Southwest  Level Estimated
11:34AM 57.5496 -36.8858 243° Southwest  Level Estimated
11:35AM 57.4922 -37.0948 243° Southwest  Level Estimated
11:36AM 57.4345 -37.3031 243° Southwest  Level Estimated
11:37AM 57.3764 -37.5108 243° Southwest  Level Estimated
11:38AM 57.3179 -37.7178 242° Southwest  Level Estimated
11:39AM 57.2592 -37.9242 242° Southwest  Level Estimated
11:40AM 57.2001 -38.1299 242° Southwest  Level Estimated
11:41AM 57.1406 -38.3349 242° Southwest  Level Estimated
11:42AM 57.0808 -38.5393 242° Southwest  Level Estimated
11:43AM 57.0207 -38.7430 242° Southwest  Level Estimated
11:44AM 56.9603 -38.9461 241° Southwest  Level Estimated
11:45AM 56.8995 -39.1485 241° Southwest  Level Estimated
11:46AM 56.8384 -39.3502 241° Southwest  Level Estimated
11:47AM 56.7770 -39.5513 241° Southwest  Level Estimated
11:48AM 56.7153 -39.7518 241° Southwest  Level Estimated
11:49AM 56.6532 -39.9515 241° Southwest  Level Estimated
11:50AM 56.5908 -40.1506 240° Southwest  Level Estimated
11:51AM 56.5281 -40.3491 240° Southwest  Level Estimated
11:52AM 56.4651 -40.5469 240° Southwest  Level Estimated
11:53AM 56.4018 -40.7440 240° Southwest  Level Estimated
11:54AM 56.3382 -40.9405 240° Southwest  Level Estimated
11:55AM 56.2742 -41.1363 240° Southwest  Level Estimated
11:56AM 56.2100 -41.3315 239° Southwest  Level Estimated
11:57AM 56.1454 -41.5260 239° Southwest  Level Estimated
11:58AM 56.0806 -41.7199 239° Southwest  Level Estimated
11:59AM 56.0154 -41.9131 239° Southwest  Level Estimated
12:00PM 55.9499 -42.1057 239° Southwest  Level Estimated
12:01PM 55.8842 -42.2976 239° Southwest  Level Estimated
12:02PM 55.8181 -42.4888 238° Southwest  Level Estimated
12:03PM 55.7517 -42.6794 238° Southwest  Level Estimated
12:04PM 55.6851 -42.8694 238° Southwest  Level Estimated
12:05PM 55.6181 -43.0587 238° Southwest  Level Estimated
12:06PM 55.5509 -43.2473 238° Southwest  Level Estimated
12:07PM 55.4834 -43.4354 238° Southwest  Level Estimated
12:08PM 55.4156 -43.6227 238° Southwest  Level Estimated
12:09PM 55.3475 -43.8095 237° Southwest  Level Estimated
12:10PM 55.2791 -43.9955 237° Southwest  Level Estimated
12:11PM 55.2104 -44.1810 237° Southwest  Level Estimated
12:12PM 55.1415 -44.3658 237° Southwest  Level Estimated
12:13PM 55.0723 -44.5500 237° Southwest  Level Estimated
12:13PM 63.1333 -54.8667 236° Southwest 260 299 37,000  Level Gander Center
12:14PM 55.0028 -44.7335 237° Southwest  Level Estimated
12:14PM 63.1167 -55.1333 262° West 440 506 37,000  Level Gander Center
12:15PM 54.9330 -44.9164 236° Southwest  Level Estimated
12:15PM 63.0333 -55.4000 236° Southwest 470 541 37,000  Level Gander Center
12:16PM 54.8629 -45.0987 236° Southwest  Level Estimated
12:16PM 62.9833 -55.6667 248° West 470 541 37,000  Level Gander Center
12:17PM 54.7943 -45.2759 236° Southwest  Level Estimated
12:17PM 62.9333 -55.9333 248° West 470 541 37,000  Level Gander Center
12:18PM 54.7255 -45.4524 236° Southwest  Level Estimated
12:18PM 62.8833 -56.2000 248° West 470 541 37,000  Level Gander Center
12:19PM 54.6564 -45.6283 236° Southwest  Level Estimated
12:19PM 62.8000 -56.4167 230° Southwest 470 541 37,000  Level Gander Center
12:21PM 62.6667 -56.8833 238° Southwest 470 541 37,000  Level Gander Center
12:22PM 62.6000 -57.1333 240° Southwest 470 541 37,000  Level Gander Center
12:23PM 62.5167 -57.3667 232° Southwest 480 552 37,000  Level Gander Center
12:24PM 62.4667 -57.4500 218° Southwest 480 552 37,000  Level Montreal Center
12:24PM 62.4333 -57.6667 252° West 470 541 37,000  Level Gander Center
12:25PM 62.3667 -57.8833 237° Southwest 470 541 37,000  Level Gander Center
12:26PM 62.3000 -58.0667 232° Southwest 470 541 37,000  Level Gander Center
12:27PM 62.2333 -58.3000 239° Southwest 470 541 37,000  Level Gander Center
12:28PM 62.2000 -58.3500 215° Southwest 450 518 37,000  Level Montreal Center
12:29PM 62.1500 -58.5667 244° Southwest 450 518 37,000  Level Montreal Center
12:29PM 62.0667 -58.8000 233° Southwest 460 529 37,000  Level Gander Center
12:30PM 62.0500 -58.9167 253° West 450 518 37,000  Level Gander Center
12:31PM 61.9333 -59.2000 229° Southwest 480 552 37,000  Level Gander Center
12:32PM 61.8333 -59.4500 230° Southwest 480 552 37,000  Level Gander Center
12:33PM 61.7667 -59.6667 237° Southwest 470 541 37,000  Level Gander Center
12:34PM 61.6833 -59.9167 235° Southwest 470 541 37,000  Level Gander Center
12:35PM 61.6167 -60.1000 233° Southwest 470 541 37,000  Level Gander Center
12:36PM 61.5667 -60.3000 242° Southwest 470 541 37,000  Level Gander Center
12:37PM 61.4833 -60.5167 231° Southwest 470 541 37,000  Level Gander Center
12:38PM 61.4000 -60.7333 231° Southwest 470 541 37,000  Level Gander Center
12:39PM 61.3167 -60.9333 229° Southwest 460 529 37,000  Level Gander Center
12:40PM 61.2667 -61.0000 213° Southwest 460 529 37,000  Level Montreal Center
12:41PM 61.1833 -61.2167 231° Southwest 470 541 37,000  Level Montreal Center
12:41PM 61.1500 -61.4167 251° West 460 529 37,000  Level Gander Center
12:42PM 61.0667 -61.6333 232° Southwest 470 541 37,000  Level Gander Center
12:43PM 61.0000 -61.8000 231° Southwest 460 529 37,000  Level Gander Center
12:44PM 60.9333 -61.9667 231° Southwest 470 541 37,000 -60 Level Gander Center
12:45PM 60.8500 -62.2000 234° Southwest 460 529 36,900 -420 Descending Gander Center
12:46PM 60.7667 -62.4333 234° Southwest 470 541 36,200 -480 Descending Gander Center
12:47PM 60.7000 -62.6333 236° Southwest 460 529 36,000 -120 Descending Gander Center
12:48PM 60.6000 -62.8667 229° Southwest 460 529 36,000  Level Gander Center
12:49PM 60.5167 -63.0667 230° Southwest 460 529 36,000  Level Gander Center
12:50PM 60.4500 -63.2667 236° Southwest 460 529 36,000  Level Gander Center
12:51PM 60.3667 -63.4667 230° Southwest 460 529 36,000  Level Gander Center
12:52PM 60.2833 -63.6667 230° Southwest 460 529 36,000  Level Gander Center
12:53PM 60.2333 -63.7000 198° South 450 518 36,000  Level Montreal Center
12:54PM 60.1500 -63.9000 230° Southwest 450 518 36,000  Level Montreal Center
12:55PM 60.0667 -64.1000 230° Southwest 450 518 36,000  Level Montreal Center
12:56PM 59.9833 -64.3000 230° Southwest 450 518 36,000  Level Montreal Center
12:57PM 59.9000 -64.5000 230° Southwest 450 518 36,000  Level Montreal Center
12:58PM 59.8333 -64.7000 237° Southwest 450 518 36,000  Level Montreal Center
12:59PM 59.7500 -64.8667 225° Southwest 450 518 36,000  Level Montreal Center
01:00PM 59.6667 -65.0500 228° Southwest 450 518 36,000  Level Montreal Center
01:01PM 59.5833 -65.2500 231° Southwest 450 518 36,000  Level Montreal Center
01:02PM 59.5000 -65.4333 228° Southwest 450 518 36,000  Level Montreal Center
01:03PM 59.4167 -65.6333 231° Southwest 450 518 36,000  Level Montreal Center
01:04PM 59.3333 -65.8167 228° Southwest 450 518 36,000  Level Montreal Center
01:05PM 59.2333 -65.9833 220° Southwest 450 518 36,000  Level Montreal Center
01:06PM 59.1333 -66.1167 214° Southwest 450 518 36,000  Level Montreal Center
01:07PM 59.0333 -66.2667 218° Southwest 450 518 36,000  Level Montreal Center
01:08PM 58.9333 -66.4000 215° Southwest 450 518 36,000  Level Montreal Center
01:09PM 58.8333 -66.5500 218° Southwest 450 518 36,000  Level Montreal Center
01:10PM 58.7333 -66.6833 215° Southwest 450 518 36,000  Level Montreal Center
01:11PM 58.6333 -66.8333 218° Southwest 450 518 36,000  Level Montreal Center
01:12PM 58.5333 -66.9833 218° Southwest 450 518 36,000  Level Montreal Center
01:13PM 58.4167 -67.1167 211° Southwest 450 518 36,000  Level Montreal Center
01:14PM 58.3167 -67.2667 218° Southwest 450 518 36,000  Level Montreal Center
01:15PM 58.2167 -67.3833 212° Southwest 450 518 36,000  Level Montreal Center
01:16PM 58.1167 -67.5500 221° Southwest 450 518 36,000  Level Montreal Center
01:17PM 58.0167 -67.6667 212° Southwest 450 518 36,000  Level Montreal Center
01:18PM 57.9000 -67.8167 214° Southwest 450 518 36,000  Level Montreal Center
01:19PM 57.8000 -67.9667 219° Southwest 450 518 36,000  Level Montreal Center
01:20PM 57.7000 -68.0833 212° Southwest 450 518 36,000  Level Montreal Center
01:21PM 57.6000 -68.2333 219° Southwest 450 518 36,000  Level Montreal Center
01:22PM 57.4833 -68.3833 215° Southwest 450 518 36,000  Level Montreal Center
01:23PM 57.3833 -68.5000 212° Southwest 450 518 36,000  Level Montreal Center
01:24PM 57.2833 -68.6333 216° Southwest 450 518 36,000  Level Montreal Center
01:25PM 57.1667 -68.7500 208° Southwest 450 518 36,000  Level Montreal Center
01:26PM 57.0833 -68.9000 224° Southwest 450 518 36,000  Level Montreal Center
01:27PM 56.9667 -69.0167 209° Southwest 450 518 36,000  Level Montreal Center
01:28PM 56.8833 -69.1500 221° Southwest 450 518 36,000  Level Montreal Center
01:29PM 56.7667 -69.2667 209° Southwest 450 518 36,000  Level Montreal Center
01:30PM 56.6667 -69.4000 216° Southwest 450 518 36,000  Level Montreal Center
01:31PM 56.5500 -69.5167 209° Southwest 450 518 36,000  Level Montreal Center
01:32PM 56.4500 -69.6500 216° Southwest 450 518 36,000  Level Montreal Center
01:33PM 56.3333 -69.8000 216° Southwest 450 518 36,000  Level Montreal Center
01:34PM 56.2333 -69.9000 209° Southwest 450 518 36,000  Level Montreal Center
01:35PM 56.1333 -70.0333 217° Southwest 450 518 36,000  Level Montreal Center
01:36PM 56.0333 -70.1500 213° Southwest 450 518 36,000  Level Montreal Center
01:37PM 55.9167 -70.2833 213° Southwest 450 518 36,000  Level Montreal Center
01:38PM 55.8167 -70.3833 209° Southwest 450 518 36,000  Level Montreal Center
01:39PM 55.7167 -70.5167 217° Southwest 440 506 36,000  Level Montreal Center
01:40PM 55.6167 -70.6167 209° Southwest 450 518 36,000  Level Montreal Center
01:41PM 55.5167 -70.7500 217° Southwest 450 518 36,000  Level Montreal Center
01:42PM 55.4000 -70.8833 213° Southwest 450 518 36,000  Level Montreal Center
01:43PM 55.3000 -71.0000 214° Southwest 450 518 36,000  Level Montreal Center
01:44PM 55.1833 -71.1167 210° Southwest 450 518 36,000  Level Montreal Center
01:45PM 55.0833 -71.2333 214° Southwest 450 518 36,000  Level Montreal Center
01:46PM 54.9667 -71.3500 210° Southwest 440 506 36,000  Level Montreal Center
01:47PM 54.8667 -71.4500 210° Southwest 450 518 36,000  Level Montreal Center
01:48PM 54.7667 -71.5833 218° Southwest 450 518 36,000  Level Montreal Center
01:49PM 54.6667 -71.6833 210° Southwest 450 518 36,000  Level Montreal Center
01:50PM 54.5500 -71.8167 214° Southwest 450 518 36,000  Level Montreal Center
01:51PM 54.4500 -71.9000 206° Southwest 450 518 36,000  Level Montreal Center
01:52PM 54.3500 -72.0333 218° Southwest 450 518 36,000  Level Montreal Center
01:53PM 54.2167 -72.1333 204° Southwest 450 518 36,000  Level Montreal Center
01:54PM 54.1167 -72.2500 214° Southwest 450 518 36,000  Level Montreal Center
01:55PM 54.0167 -72.3833 218° Southwest 450 518 36,000  Level Montreal Center
01:56PM 53.9167 -72.4833 211° Southwest 450 518 36,000  Level Montreal Center
01:57PM 53.8000 -72.6000 211° Southwest 450 518 36,000  Level Montreal Center
01:58PM 53.7000 -72.7000 211° Southwest 450 518 36,000  Level Montreal Center
01:59PM 53.5833 -72.8167 211° Southwest 450 518 36,000  Level Montreal Center
02:00PM 53.4833 -72.9000 206° Southwest 450 518 36,000  Level Montreal Center
02:01PM 53.3667 -73.0333 214° Southwest 440 506 36,000  Level Montreal Center
02:02PM 53.2667 -73.1167 206° Southwest 440 506 36,000  Level Montreal Center
02:03PM 53.1500 -73.2333 211° Southwest 440 506 36,000  Level Montreal Center
02:04PM 53.0500 -73.3333 211° Southwest 440 506 36,000  Level Montreal Center
02:05PM 52.9500 -73.4500 215° Southwest 450 518 36,000  Level Montreal Center
02:06PM 52.8500 -73.5333 207° Southwest 440 506 36,000  Level Montreal Center
02:07PM 52.7333 -73.6500 211° Southwest 450 518 36,000  Level Montreal Center
02:08PM 52.6167 -73.7667 211° Southwest 450 518 36,000  Level Montreal Center
02:09PM 52.5167 -73.8667 211° Southwest 450 518 36,000  Level Montreal Center
02:10PM 52.4000 -73.9833 211° Southwest 440 506 36,000  Level Montreal Center
02:11PM 52.3000 -74.0667 207° Southwest 440 506 36,000  Level Montreal Center
02:12PM 52.1833 -74.1833 212° Southwest 440 506 36,000  Level Montreal Center
02:13PM 52.0833 -74.2667 207° Southwest 440 506 36,000  Level Montreal Center
02:14PM 51.9667 -74.3833 212° Southwest 440 506 36,000  Level Montreal Center
02:15PM 51.8667 -74.4667 207° Southwest 440 506 36,000  Level Montreal Center
02:16PM 51.7667 -74.5500 207° Southwest 440 506 36,000  Level Montreal Center
02:17PM 51.6500 -74.6667 212° Southwest 450 518 36,000  Level Montreal Center
02:18PM 51.5333 -74.7667 208° Southwest 450 518 36,000  Level Montreal Center
02:19PM 51.4333 -74.8500 207° Southwest 440 506 36,000  Level Montreal Center
02:20PM 51.3333 -74.9667 216° Southwest 440 506 36,000  Level Montreal Center
02:21PM 51.2167 -75.0500 204° Southwest 440 506 36,000  Level Montreal Center
02:22PM 51.1167 -75.1667 216° Southwest 440 506 36,000  Level Montreal Center
02:23PM 51.0000 -75.2500 204° Southwest 440 506 36,000  Level Montreal Center
02:24PM 50.9000 -75.3500 212° Southwest 440 506 36,000  Level Montreal Center
02:25PM 50.7833 -75.4333 204° Southwest 440 506 36,000  Level Montreal Center
02:26PM 50.6833 -75.5333 212° Southwest 440 506 36,000  Level Montreal Center
02:27PM 50.5667 -75.6167 204° Southwest 440 506 36,000  Level Montreal Center
02:28PM 50.4667 -75.7333 217° Southwest 440 506 36,000  Level Montreal Center
02:29PM 50.3500 -75.8000 200° South 440 506 36,000  Level Montreal Center
02:30PM 50.2500 -75.9167 217° Southwest 440 506 36,000  Level Montreal Center
02:31PM 50.1500 -76.0000 208° Southwest 440 506 36,000  Level Montreal Center
02:32PM 50.0333 -76.1000 209° Southwest 440 506 36,000  Level Montreal Center
02:33PM 49.9167 -76.1667 200° South 440 506 36,000  Level Montreal Center
02:34PM 49.8000 -76.2833 213° Southwest 440 506 36,000  Level Montreal Center
02:35PM 49.7000 -76.3500 203° Southwest 450 518 36,000  Level Montreal Center
02:36PM 49.5833 -76.4667 213° Southwest 430 495 36,000  Level Montreal Center
02:37PM 49.4667 -76.5333 200° South 460 529 36,000  Level Montreal Center
02:38PM 49.3667 -76.6333 213° Southwest 440 506 36,000  Level Montreal Center
02:39PM 49.2500 -76.7167 205° Southwest 450 518 36,000  Level Montreal Center
02:40PM 49.1500 -76.8167 213° Southwest 450 518 36,000  Level Montreal Center
02:41PM 49.0333 -76.9167 209° Southwest 440 506 36,000  Level Montreal Center
02:42PM 48.9333 -76.9833 204° Southwest 440 506 36,000  Level Montreal Center
02:43PM 48.8167 -77.0833 209° Southwest 440 506 36,000  Level Montreal Center
02:44PM 48.7000 -77.1667 205° Southwest 440 506 36,000  Level Montreal Center
02:45PM 48.5833 -77.2667 210° Southwest 450 518 36,000  Level Montreal Center
02:46PM 48.4833 -77.3333 204° Southwest 450 518 36,000  Level Montreal Center
02:47PM 48.3667 -77.4333 210° Southwest 450 518 36,000  Level Montreal Center
02:48PM 48.2667 -77.5000 204° Southwest 450 518 36,000  Level Montreal Center
02:49PM 48.1500 -77.6000 210° Southwest 450 518 36,000  Level Montreal Center
02:50PM 48.0333 -77.7000 210° Southwest 450 518 36,000  Level Montreal Center
02:51PM 47.9333 -77.7667 204° Southwest 450 518 36,000  Level Montreal Center
02:52PM 47.8000 -77.8667 207° Southwest 450 518 36,000  Level Montreal Center
02:53PM 47.7000 -77.9333 204° Southwest 450 518 36,000  Level Montreal Center
02:54PM 47.6000 -78.0333 214° Southwest 450 518 36,000  Level Montreal Center
02:55PM 47.4833 -78.1000 201° Southwest 450 518 36,000  Level Montreal Center
02:56PM 47.3667 -78.2000 210° Southwest 450 518 36,000  Level Montreal Center
02:57PM 47.2500 -78.2667 201° Southwest 450 518 36,000  Level Montreal Center
03:02PM 46.6555 -78.7162 207° Southwest 456 525 36,000  Level FlightAware ADS-B (CYYZ)
03:03PM 46.5931 -78.7610 207° Southwest 456 525 36,000  Level FlightAware ADS-B (CYYZ)
03:03PM 46.5306 -78.8061 207° Southwest 456 525 36,000  Level FlightAware ADS-B (CYYZ)
03:04PM 46.4743 -78.8465 207° Southwest 455 524 36,000  Level FlightAware ADS-B (CYYZ)
03:04PM 46.4181 -78.8867 207° Southwest 454 522 36,000  Level FlightAware ADS-B (CYYZ)
03:05PM 46.3602 -78.9280 207° Southwest 454 522 36,000  Level FlightAware ADS-B (CYYZ)
03:05PM 46.3048 -78.9677 207° Southwest 455 524 36,000  Level FlightAware ADS-B (CYYZ)
03:06PM 46.2537 -79.0041 207° Southwest 455 524 36,000  Level FlightAware ADS-B (CYYZ)
03:06PM 46.1977 -79.0438 207° Southwest 455 524 36,000  Level FlightAware ADS-B (CYYZ)
03:07PM 46.1340 -79.0887 207° Southwest 455 524 36,000  Level FlightAware ADS-B (CYYZ)
03:07PM 46.0776 -79.1285 207° Southwest 455 524 36,000  Level FlightAware ADS-B (CYYZ)
03:08PM 46.0225 -79.1673 207° Southwest 454 522 36,000  Level FlightAware ADS-B (CYYZ)
03:08PM 45.9668 -79.2064 206° Southwest 455 524 36,000  Level FlightAware ADS-B (CYYZ)
03:09PM 45.9123 -79.2445 207° Southwest 456 525 36,000  Level FlightAware ADS-B (CYYZ)
03:09PM 45.8522 -79.2865 206° Southwest 454 522 36,000  Level FlightAware ADS-B (CYYZ)
03:10PM 45.7942 -79.3270 207° Southwest 453 521 36,000  Level FlightAware ADS-B (CYYZ)
03:10PM 45.7380 -79.3662 207° Southwest 453 521 36,000  Level FlightAware ADS-B (CYYZ)
03:11PM 45.6820 -79.4053 206° Southwest 454 522 36,000  Level FlightAware ADS-B (CYYZ)
03:11PM 45.6246 -79.4450 206° Southwest 455 524 36,000  Level FlightAware ADS-B (CYYZ)
03:12PM 45.5724 -79.4811 207° Southwest 456 525 36,000  Level FlightAware ADS-B (CYYZ)
03:12PM 45.5127 -79.5223 206° Southwest 457 526 36,000  Level FlightAware ADS-B (CYYZ)
03:13PM 45.4534 -79.5630 206° Southwest 459 528 36,000  Level FlightAware ADS-B (CYYZ)
03:13PM 45.3967 -79.6020 206° Southwest 461 531 36,000  Level FlightAware ADS-B (CYYZ)
03:14PM 45.3386 -79.6418 206° Southwest 460 529 36,000  Level FlightAware ADS-B (CYYZ)
03:14PM 45.2805 -79.6816 206° Southwest 460 529 36,000  Level FlightAware ADS-B (CYYZ)
03:15PM 45.2262 -79.7185 206° Southwest 459 528 36,000  Level FlightAware ADS-B (CYYZ)
03:15PM 45.1668 -79.7591 206° Southwest 458 527 36,000  Level FlightAware ADS-B (CYYZ)
03:16PM 45.1086 -79.7985 206° Southwest 457 526 36,000  Level FlightAware ADS-B (CYYZ)
03:16PM 45.1049 -79.8010 206° Southwest 457 526 36,000  Level FlightAware ADS-B (CYKZ)
03:16PM 45.0522 -79.8368 206° Southwest 457 526 36,000  Level FlightAware ADS-B (CYYZ)
03:17PM 45.0045 -79.8690 206° Southwest 457 526 36,000  Level FlightAware ADS-B (CYKZ)
03:17PM 44.9944 -79.8758 206° Southwest 457 526 36,000  Level FlightAware ADS-B (CYYZ)
03:17PM 44.9379 -79.9139 206° Southwest 457 526 36,000  Level FlightAware ADS-B (CYYZ)
03:17PM 44.9289 -79.9199 206° Southwest 458 527 36,000  Level FlightAware ADS-B (CYKZ)
03:18PM 44.8814 -79.9519 206° Southwest 457 526 36,000  Level FlightAware ADS-B (CYYZ)
03:18PM 44.8706 -79.9592 206° Southwest 457 526 36,000  Level FlightAware ADS-B (CYKZ)
03:18PM 44.8257 -79.9894 206° Southwest 457 526 36,000  Level FlightAware ADS-B (CYYZ)
03:19PM 44.8029 -80.0047 206° Southwest 458 527 36,000  Level FlightAware ADS-B (CYKZ)
03:19PM 44.7654 -80.0298 206° Southwest 457 526 36,000  Level FlightAware ADS-B (CYYZ)
03:19PM 44.7311 -80.0528 206° Southwest 459 528 36,000  Level FlightAware ADS-B (CYKZ)
03:19PM 44.7083 -80.0682 206° Southwest 458 527 36,000  Level FlightAware ADS-B (CYYZ)
03:20PM 44.6563 -80.1028 205° Southwest 459 528 36,000  Level FlightAware ADS-B (CYKZ)
03:20PM 44.6502 -80.1069 206° Southwest 459 528 36,000  Level FlightAware ADS-B (CYYZ)
03:20PM 44.5942 -80.1441 206° Southwest 460 529 36,000  Level FlightAware ADS-B (CYYZ)
03:20PM 44.6154 -80.1299 205° Southwest 460 529 36,000  Level FlightAware ADS-B (CYKZ)
03:21PM 44.5350 -80.1833 206° Southwest 461 531 36,000  Level FlightAware ADS-B (CYYZ)
03:21PM 44.5199 -80.1933 205° Southwest 461 531 36,000  Level FlightAware ADS-B (CYKZ)
03:21PM 44.4778 -80.2211 206° Southwest 461 531 36,000  Level FlightAware ADS-B (CYYZ)
03:22PM 44.4203 -80.2590 206° Southwest 461 531 36,000  Level FlightAware ADS-B (CYYZ)
03:22PM 44.4330 -80.2506 205° Southwest 462 532 36,000  Level FlightAware ADS-B (CYKZ)
03:22PM 44.3620 -80.2977 206° Southwest 460 529 36,000  Level FlightAware ADS-B (CYYZ)
03:23PM 44.3058 -80.3347 206° Southwest 460 529 36,000  Level FlightAware ADS-B (CYYZ)
03:23PM 44.2470 -80.3733 206° Southwest 462 532 36,000  Level FlightAware ADS-B (CYYZ)
03:23PM 44.3459 -80.3083 205° Southwest 463 533 36,000  Level FlightAware ADS-B (CYKF)
03:24PM 44.1884 -80.4119 206° Southwest 464 534 36,000  Level FlightAware ADS-B (CYYZ)
03:24PM 44.1307 -80.4497 206° Southwest 464 534 36,000  Level FlightAware ADS-B (CYYZ)
03:24PM 44.1411 -80.4429 205° Southwest 465 535 36,000  Level FlightAware ADS-B (CYKZ)
03:25PM 44.0730 -80.4872 206° Southwest 464 534 36,000  Level FlightAware ADS-B (CYYZ)
03:25PM 44.0272 -80.5170 205° Southwest 466 536 36,000  Level FlightAware ADS-B (CYKZ)
03:25PM 44.0131 -80.5261 206° Southwest 467 537 36,000  Level FlightAware ADS-B (CYYZ)
03:26PM 43.9551 -80.5638 206° Southwest 468 539 36,000  Level FlightAware ADS-B (CYYZ)
03:26PM 43.9651 -80.5573 205° Southwest 468 539 36,000  Level FlightAware ADS-B (CYKZ)
03:26PM 43.8965 -80.6018 206° Southwest 468 539 36,000  Level FlightAware ADS-B (CYYZ)
03:26PM 43.9007 -80.5991 205° Southwest 468 539 36,000  Level FlightAware ADS-B (CYKZ)
03:27PM 43.8374 -80.6402 206° Southwest 464 534 36,000  Level FlightAware ADS-B (CYYZ)
03:27PM 43.8104 -80.6576 205° Southwest 464 534 36,000  Level FlightAware ADS-B (CYKZ)
03:27PM 43.7789 -80.6778 205° Southwest 463 533 36,000  Level FlightAware ADS-B (CYYZ)
03:28PM 43.7470 -80.6983 205° Southwest 462 532 36,000  Level FlightAware ADS-B
03:28PM 43.7206 -80.7153 205° Southwest 462 532 36,000  Level FlightAware ADS-B (CYYZ)
03:28PM 43.6637 -80.7519 205° Southwest 460 529 36,000  Level FlightAware ADS-B (CYYZ)
03:29PM 43.6060 -80.7889 205° Southwest 462 532 36,000  Level FlightAware ADS-B (CYYZ)
03:29PM 43.5701 -80.8119 205° Southwest 462 532 36,000  Level FlightAware ADS-B (CYKZ)
03:29PM 43.5486 -80.8257 205° Southwest 462 532 36,000  Level FlightAware ADS-B (CYYZ)
03:30PM 43.4885 -80.8640 205° Southwest 462 532 36,000  Level FlightAware ADS-B (CYYZ)
03:30PM 43.4691 -80.8763 205° Southwest 463 533 36,000  Level FlightAware ADS-B (CYKZ)
03:30PM 43.4310 -80.9006 205° Southwest 462 532 36,000  Level FlightAware ADS-B (CYYZ)
03:31PM 43.3984 -80.9214 205° Southwest 463 533 36,000  Level FlightAware ADS-B
03:31PM 43.3724 -80.9380 205° Southwest 462 532 36,000  Level FlightAware ADS-B (CYYZ)
03:31PM 43.3232 -80.9693 205° Southwest 462 532 36,000  Level FlightAware ADS-B (CYKZ)
03:31PM 43.3137 -80.9753 205° Southwest 461 531 36,000  Level FlightAware ADS-B (CYYZ)
03:32PM 43.2582 -81.0103 205° Southwest 462 532 36,000  Level FlightAware ADS-B (CYYZ)
03:32PM 43.2496 -81.0157 205° Southwest 462 532 36,000  Level FlightAware ADS-B (CYKZ)
03:32PM 43.1982 -81.0481 205° Southwest 463 533 36,000  Level FlightAware ADS-B (CYYZ)
03:32PM 43.2231 -81.0323 205° Southwest 464 534 36,000  Level FlightAware ADS-B (CYKF)
03:33PM 43.1466 -81.0806 205° Southwest 464 534 36,000  Level FlightAware ADS-B (CYYZ)
03:33PM 43.1021 -81.1088 205° Southwest 466 536 36,000  Level FlightAware ADS-B (CYKZ)
03:33PM 43.0813 -81.1219 205° Southwest 467 537 36,000  Level FlightAware ADS-B (CYYZ)
03:34PM 43.0214 -81.1595 205° Southwest 468 539 36,000  Level FlightAware ADS-B (CYYZ)
03:34PM 42.9953 -81.1758 205° Southwest 468 539 36,000  Level FlightAware ADS-B (CYKZ)
03:34PM 42.9630 -81.1958 205° Southwest 468 539 36,000  Level FlightAware ADS-B (CYYZ)
03:35PM 42.9039 -81.2323 205° Southwest 466 536 36,000  Level FlightAware ADS-B (CYYZ)
03:35PM 42.8842 -81.2444 204° Southwest 466 536 36,000  Level FlightAware ADS-B (CYKZ)
03:35PM 42.8452 -81.2683 205° Southwest 465 535 36,000  Level FlightAware ADS-B (CYYZ)
03:36PM 42.8050 -81.2930 204° Southwest 465 535 36,000  Level FlightAware ADS-B (CYKZ)
03:36PM 42.7878 -81.3036 205° Southwest 465 535 36,000  Level FlightAware ADS-B (CYYZ)
03:36PM 42.7461 -81.3292 204° Southwest 465 535 36,000  Level FlightAware ADS-B (CYKZ)
03:36PM 42.7290 -81.3397 205° Southwest 465 535 36,000  Level FlightAware ADS-B (CYYZ)
03:37PM 42.6685 -81.3767 205° Southwest 463 533 36,000  Level FlightAware ADS-B (CYYZ)
03:37PM 42.6101 -81.4126 205° Southwest 464 534 36,000  Level FlightAware ADS-B (CYYZ)
03:37PM 42.6076 -81.4141 204° Southwest 464 534 36,000  Level FlightAware ADS-B (CYKZ)
03:38PM 42.5521 -81.4480 205° Southwest 465 535 36,000  Level FlightAware ADS-B (CYYZ)
03:38PM 42.5625 -81.4417 204° Southwest 465 535 36,000  Level FlightAware ADS-B (CYKZ)
03:38PM 42.4965 -81.4818 205° Southwest 465 535 36,000  Level FlightAware ADS-B (CYYZ)
03:39PM 42.4353 -81.5191 205° Southwest 462 532 36,000  Level FlightAware ADS-B (CYYZ)
03:39PM 42.3781 -81.5539 205° Southwest 460 529 36,000  Level FlightAware ADS-B (CYYZ)
03:40PM 42.3191 -81.5895 205° Southwest 460 529 36,000  Level FlightAware ADS-B (CYYZ)
03:40PM 42.2617 -81.6242 205° Southwest 459 528 36,000  Level FlightAware ADS-B (CYYZ)
03:41PM 42.2416 -81.6364 205° Southwest 459 528 36,000  Level FlightAware ADS-B (CYYZ)
03:41PM 42.1492 -81.6920 205° Southwest 461 531 36,000  Level FlightAware ADS-B (CYYZ)
03:42PM 42.0853 -81.7306 205° Southwest 461 531 36,000  Level FlightAware ADS-B (CYYZ)
03:42PM 42.0264 -81.7661 205° Southwest 461 531 36,000  Level FlightAware ADS-B (CYYZ)
03:44PM 41.8620 -81.8642 205° Southwest 460 529 36,000  Level FlightAware ADS-B (CYYZ)
03:44PM 41.7938 -81.9047 204° Southwest 460 529 36,000  Level FlightAware ADS-B (CYYZ)
03:46PM 41.6230 -82.0061 204° Southwest 464 534 36,000  Level FlightAware ADS-B (CYYZ)
03:46PM 41.5689 -82.0381 204° Southwest 464 534 36,000  Level FlightAware ADS-B (CYYZ)
03:48PM 41.4029 -82.1357 204° Southwest 464 534 36,000  Level FlightAware ADS-B (CYYZ)
03:48PM 41.3408 -82.1666 204° Southwest 464 534 36,000  Level FlightAware ADS-B (CYYZ)
03:49PM 41.2719 -82.1894 204° Southwest 464 534 36,000  Level Indianapolis Center
03:50PM 41.1664 -82.2308 196° South 471 542 36,000  Level Cleveland Center
03:51PM 41.0403 -82.2758 195° South 471 542 36,000  Level Cleveland Center
03:52PM 40.9136 -82.3203 195° South 471 542 36,000  Level Cleveland Center
03:53PM 40.7867 -82.3656 195° South 470 541 36,000  Level Cleveland Center
03:54PM 40.6592 -82.4106 195° South 470 541 36,000  Level Cleveland Center
03:55PM 40.5147 -82.4619 195° South 471 542 36,000  Level Cleveland Center
04:00PM 39.8073 -82.6117 183° South 482 555 36,000  Level FlightAware ADS-B (KPMH)
04:01PM 39.7229 -82.6174 183° South 481 554 36,000  Level FlightAware ADS-B (KPMH)
04:01PM 39.6372 -82.6232 183° South 478 550 36,000  Level FlightAware ADS-B (KPMH)
04:02PM 39.5751 -82.6273 183° South 476 548 36,000  Level FlightAware ADS-B (KPMH)
04:03PM 39.4876 -82.6332 183° South 476 548 36,000  Level FlightAware ADS-B (KPMH)
04:03PM 39.4135 -82.6382 183° South 477 549 36,000  Level FlightAware ADS-B (KPMH)
04:04PM 39.3335 -82.6436 183° South 478 550 36,000  Level FlightAware ADS-B (KPMH)
04:04PM 39.2709 -82.6478 183° South 479 551 36,000  Level FlightAware ADS-B (KPMH)
04:05PM 39.1716 -82.6543 183° South 480 552 36,000  Level FlightAware ADS-B (KPMH)
04:05PM 39.1057 -82.6586 183° South 477 549 36,000  Level FlightAware ADS-B (KPMH)
04:06PM 38.9934 -82.6660 183° South 473 544 36,000  Level FlightAware ADS-B (KPMH)
04:07PM 38.9258 -82.6704 183° South 467 537 36,000  Level FlightAware ADS-B (KPMH)
04:07PM 38.8699 -82.6741 183° South 463 533 36,000  Level FlightAware ADS-B (KPMH)
04:08PM 38.7918 -82.6794 183° South 461 531 36,000  Level FlightAware ADS-B (KPMH)
04:08PM 38.7256 -82.6838 183° South 460 529 36,000  Level FlightAware ADS-B (KPMH)
04:09PM 38.6601 -82.6881 183° South 459 528 36,000  Level FlightAware ADS-B (KPMH)
04:10PM 38.5373 -82.6960 183° South 458 527 36,000  Level FlightAware ADS-B (KPMH)
04:11PM 38.4453 -82.7022 183° South 454 522 36,000  Level Indianapolis Center
04:12PM 38.3194 -82.7125 184° South 453 521 36,000  Level Indianapolis Center
04:13PM 38.1928 -82.7197 183° South 453 521 36,000  Level Indianapolis Center
04:14PM 38.0656 -82.7281 183° South 453 521 36,000  Level Indianapolis Center
04:15PM 37.9397 -82.7367 183° South 454 522 36,000  Level Indianapolis Center
04:16PM 37.7956 -82.7461 183° South 448 516 36,000  Level Indianapolis Center
04:17PM 37.6742 -82.7683 188° South 444 511 36,000  Level Indianapolis Center
04:18PM 37.5633 -82.8269 203° Southwest 432 497 36,000  Level Indianapolis Center
04:19PM 37.4603 -82.8961 208° Southwest 423 487 36,000  Level Indianapolis Center
04:20PM 37.3556 -82.9650 208° Southwest 423 487 36,000  Level Indianapolis Center
04:21PM 37.2325 -83.0453 207° Southwest 425 489 36,000  Level Indianapolis Center
04:22PM 37.1281 -83.1133 207° Southwest 426 490 36,000  Level Indianapolis Center
04:23PM 37.0239 -83.1811 207° Southwest 426 490 36,000  Level Indianapolis Center
04:24PM 36.9186 -83.2481 207° Southwest 426 490 36,000  Level Indianapolis Center
04:25PM 36.7969 -83.3264 207° Southwest 426 490 36,000  Level Indianapolis Center
04:26PM 36.6939 -83.3925 207° Southwest 422 486 36,000  Level Indianapolis Center
04:27PM 36.5908 -83.4586 207° Southwest 420 483 36,000  Level Indianapolis Center
04:28PM 36.4872 -83.5256 207° Southwest 420 483 36,000  Level Indianapolis Center
04:29PM 36.3833 -83.5903 207° Southwest 420 483 36,000  Level Indianapolis Center
04:30PM 36.2794 -83.6575 208° Southwest 420 483 36,000  Level Indianapolis Center
04:31PM 36.1539 -83.7375 207° Southwest 420 483 36,000  Level Indianapolis Center
04:32PM 36.0725 -83.7922 209° Southwest 426 490 36,000  Level Atlanta Center
04:33PM 35.9706 -83.8567 207° Southwest 426 490 36,000  Level Atlanta Center
04:34PM 35.8558 -83.9031 198° South 426 490 36,000  Level Atlanta Center
04:38PM 35.2964 -84.0424 191° South 439 505 36,000  Level FlightAware ADS-B (KDZJ)
04:39PM 35.2268 -84.0590 191° South 440 506 36,000  Level FlightAware ADS-B (KDZJ)
04:40PM 35.1478 -84.0779 191° South 441 507 36,000  Level FlightAware ADS-B (KDZJ)
04:40PM 35.0550 -84.1000 191° South 440 506 36,000 300 Level FlightAware ADS-B (KDZJ)
04:41PM 34.9778 -84.1186 191° South 440 506 36,500 900 Climbing FlightAware ADS-B (KDZJ)
04:42PM 34.9014 -84.1368 191° South 443 510 37,200 840 Climbing FlightAware ADS-B (KDZJ)
04:42PM 34.8229 -84.1555 191° South 445 512 37,600 540 Climbing FlightAware ADS-B (KDZJ)
04:43PM 34.7381 -84.1758 191° South 445 512 38,000 240 Climbing FlightAware ADS-B (KDZJ)
04:44PM 34.6506 -84.1965 191° South 457 526 38,000  Level FlightAware ADS-B (KDZJ)
04:44PM 34.5791 -84.2133 191° South 458 527 38,000  Level FlightAware ADS-B (KDZJ)
04:45PM 34.4798 -84.2366 191° South 447 514 38,000  Level FlightAware ADS-B (KDZJ)
04:46PM 34.3990 -84.2557 191° South 443 510 38,000  Level FlightAware ADS-B (KDZJ)
04:46PM 34.3176 -84.2748 191° South 440 506 38,000  Level FlightAware ADS-B (KDZJ)
04:47PM 34.2361 -84.2938 191° South 445 512 38,000  Level FlightAware ADS-B (KDZJ)
04:48PM 34.1532 -84.3132 191° South 446 513 38,000  Level FlightAware ADS-B (KDZJ)
04:48PM 34.0741 -84.3318 191° South 446 513 38,000  Level FlightAware ADS-B (KDZJ)
04:49PM 33.9597 -84.3586 191° South 439 505 38,000  Level FlightAware ADS-B (KDZJ)
04:50PM 33.9192 -84.3692 191° South 453 521 38,000  Level Atlanta Center
04:51PM 33.7958 -84.3986 191° South 452 520 38,000  Level Atlanta Center
04:52PM 33.6725 -84.4281 191° South 452 520 38,000  Level Atlanta Center
04:53PM 33.5578 -84.4353 183° South 447 514 38,000  Level Atlanta Center
04:54PM 33.4347 -84.4344 180° South 447 514 38,000 300 Level Atlanta Center
04:55PM 33.3072 -84.4314 179° South 447 514 38,600 480 Climbing Atlanta Center
04:56PM 33.1800 -84.4311 180° South 458 527 39,000 180 Climbing Atlanta Center
04:57PM 33.0506 -84.4278 179° South 458 527 39,000  Level Atlanta Center
04:58PM 32.9108 -84.4222 178° South 458 527 39,000  Level Atlanta Center
04:59PM 32.8106 -84.4244 181° South 458 527 39,000  Level Atlanta Center
05:00PM 32.6581 -84.4189 178° South 458 527 39,000  Level Atlanta Center
05:01PM 32.5331 -84.4158 179° South 458 527 39,000  Level Atlanta Center
05:02PM 32.4056 -84.4103 178° South 458 527 39,000  Level Atlanta Center
05:03PM 32.2783 -84.4097 180° South 458 527 39,000  Level Atlanta Center
05:04PM 32.1511 -84.4069 179° South 458 527 39,000  Level Atlanta Center
05:05PM 32.0258 -84.4064 180° South 458 527 39,000  Level Atlanta Center
05:07PM 31.8506 -84.3992 178° South 479 551 39,000  Level Jacksonville Center
05:08PM 31.7233 -84.3972 179° South 471 542 39,000  Level Jacksonville Center
05:09PM 31.5958 -84.3975 180° South 461 531 39,000  Level Jacksonville Center
05:14PM 30.8307 -84.3792 179° South 461 531 39,000  Level FlightAware ADS-B (KTLH)
05:15PM 30.7667 -84.3780 179° South 458 527 39,000  Level FlightAware ADS-B (KTLH)
05:16PM 30.6914 -84.3759 177° South 458 527 39,000  Level FlightAware ADS-B (KTLH)
05:16PM 30.6133 -84.3644 170° South 464 534 39,000  Level FlightAware ADS-B (KTLH)
05:17PM 30.5459 -84.3453 163° South 470 541 39,000  Level FlightAware ADS-B (KTLH)
05:17PM 30.4782 -84.3170 158° South 475 547 39,000  Level FlightAware ADS-B (KTLH)
05:18PM 30.4112 -84.2784 150° Southeast 484 557 39,000  Level FlightAware ADS-B (KTLH)
05:18PM 30.3559 -84.2421 151° Southeast 484 557 39,000  Level FlightAware ADS-B (KTLH)
05:19PM 30.2828 -84.1946 151° Southeast 486 559 39,000  Level FlightAware ADS-B (KTLH)
05:19PM 30.2239 -84.1564 150° Southeast 486 559 39,000  Level FlightAware ADS-B (KTLH)
05:20PM 30.1696 -84.1209 150° Southeast 486 559 39,000  Level FlightAware ADS-B (KTLH)
05:21PM 30.1075 -84.0805 150° Southeast 488 562 39,000  Level FlightAware ADS-B (KTLH)
05:22PM 29.9758 -83.9981 150° Southeast 483 556 39,000  Level Jacksonville Center
05:23PM 29.8617 -83.9106 146° Southeast 488 562 39,000  Level Jacksonville Center
05:24PM 29.7600 -83.8017 137° Southeast 488 562 39,000  Level Jacksonville Center
05:25PM 29.6586 -83.6933 137° Southeast 493 567 39,000  Level Jacksonville Center
05:26PM 29.5464 -83.5753 138° Southeast 500 575 39,000  Level Jacksonville Center
05:27PM 29.4322 -83.4933 148° Southeast 493 567 39,000  Level Jacksonville Center
05:28PM 29.3133 -83.4214 152° Southeast 483 556 39,000  Level Jacksonville Center
05:29PM 29.1947 -83.3469 151° Southeast 483 556 39,000  Level Jacksonville Center
05:30PM 29.0803 -83.2775 152° Southeast 476 548 39,000  Level Jacksonville Center
05:31PM 28.9592 -83.2058 153° Southeast 470 541 39,000  Level Jacksonville Center
05:36PM 28.3115 -82.8159 152° Southeast 477 549 39,000  Level FlightAware ADS-B (KMCO)
05:37PM 28.2344 -82.7700 152° Southeast 477 549 39,000  Level FlightAware ADS-B (KMCO)
05:38PM 28.1068 -82.6945 152° Southeast 477 549 39,000  Level FlightAware ADS-B (KMCO)
05:39PM 27.9525 -82.6033 152° Southeast 474 545 39,000  Level FlightAware ADS-B (KMCO)
05:40PM 27.9086 -82.5774 152° Southeast 473 544 39,000  Level FlightAware ADS-B (KMCO)
05:40PM 27.8153 -82.5258 153° Southeast 481 554 39,000  Level Miami Center
05:41PM 27.7951 -82.5106 152° Southeast 474 545 39,000  Level FlightAware ADS-B (KMCO)
05:41PM 27.7152 -82.4635 153° Southeast 476 548 39,000  Level FlightAware ADS-B (KMCO)
05:42PM 27.6418 -82.4205 153° Southeast 477 549 39,000  Level FlightAware ADS-B (KMCO)
05:42PM 27.5887 -82.3894 152° Southeast 477 549 39,000  Level FlightAware ADS-B (KMCO)
05:44PM 27.4092 -82.2843 153° Southeast 476 548 39,000  Level FlightAware ADS-B (KMCO)
05:46PM 27.2303 -82.1798 153° Southeast  Level FlightAware Approximate
05:46PM 27.1870 -82.1551 153° Southeast 476 548 39,000  Level FlightAware ADS-B (KMCO)
05:47PM 27.0301 -82.0739 169° South 448 516 39,000  Level FlightAware ADS-B (KMCO)
05:47PM 26.9979 -82.0708 181° South 427 491 39,000  Level FlightAware ADS-B (KMCO)
05:48PM 26.9273 -82.0798 188° South 417 480 39,000  Level FlightAware ADS-B (KMCO)
05:49PM 26.8535 -82.0913 188° South 417 480 39,000  Level FlightAware ADS-B (KMCO)
05:49PM 26.7861 -82.1017 188° South 417 480 39,000  Level FlightAware ADS-B (KMCO)
05:50PM 26.6478 -82.1230 188° South 416 479 39,000  Level FlightAware ADS-B (KMCO)
05:51PM 26.5751 -82.1342 188° South 417 480 39,000  Level FlightAware ADS-B (KMCO)
05:52PM 26.5089 -82.1442 188° South 417 480 39,000  Level FlightAware ADS-B (KMCO)
05:52PM 26.4197 -82.1579 188° South 419 482 39,000  Level FlightAware ADS-B (KMCO)
05:53PM 26.3418 -82.1698 188° South 419 482 39,000  Level FlightAware ADS-B (KMCO)
05:54PM 26.2627 -82.1818 188° South 417 480 39,000  Level FlightAware ADS-B (KMCO)
05:54PM 26.1852 -82.1934 188° South 417 480 39,000  Level FlightAware ADS-B (KMCO)
05:55PM 26.0782 -82.2097 188° South 415 478 39,000  Level FlightAware ADS-B (KMCO)
05:57PM 25.8885 -82.2384 188° South 416 479 39,000  Level FlightAware ADS-B (KMCO)
05:58PM 25.7990 -82.2518 188° South 415 478 39,000  Level FlightAware ADS-B (KMCO)
05:59PM 25.6963 -82.2672 188° South 415 478 39,000  Level FlightAware ADS-B (KMCO)
05:59PM 25.6754 -82.2703 188° South 415 478 39,000  Level FlightAware ADS-B (KMCO)
06:01PM 25.3790 -82.3150 188° South 417 480 39,000  Level FlightAware ADS-B (KMCO)
06:03PM 25.1552 -82.3482 188° South 420 483 39,000 -120 Level FlightAware ADS-B (KMCO)
06:04PM 25.0539 -82.3672 188° South 422 486 38,800 -600 Descending Miami Center
06:05PM 24.9364 -82.3825 187° South 430 495 37,800 -1,500 Descending Miami Center
06:06PM 24.8167 -82.4025 189° South 430 495 35,900 -2,040 Descending Miami Center
06:07PM 24.6950 -82.4175 186° South 437 503 33,800 -2,100 Descending Miami Center
06:08PM 24.5733 -82.4372 188° South 437 503 31,800 -2,100 Descending Miami Center
06:09PM 24.4556 -82.4547 188° South 437 503 29,600 -2,100 Descending Miami Center
06:10PM 24.3403 -82.4722 188° South 437 503 27,700 -1,980 Descending Miami Center
06:11PM 24.2225 -82.4897 188° South 430 495 25,700 -1,980 Descending Miami Center
06:12PM 24.1094 -82.5028 186° South 430 495 23,800 -1,800 Descending Miami Center
06:13PM 23.9981 -82.5206 188° South 425 489 22,200 -1,200 Descending Miami Center
06:14PM 23.8953 -82.5319 186° South 400 460 21,500 -1,800 Descending Miami Center
06:15PM 23.7906 -82.5431 186° South 389 448 18,700 -2,820 Descending Miami Center
06:17PM 23.6551 -82.5155 169° South  Level FlightAware Approximate
06:24PM 22.9891 -82.4091 180° South  Level Estimated
06:25PM 22.9891 -82.4091 180° South  Level Estimated
06:26PM 22.9891 -82.4091 180° South  Level Estimated
06:27PM 22.9891 -82.4091 180° South  Level Estimated
06:28PM 22.9891 -82.4091 180° South  Level Estimated
06:29PM 22.9891 -82.4091 180° South  Level Estimated
06:30PM 22.9891 -82.4091 180° South  Level Estimated
06:31PM 22.9891 -82.4091 180° South  Level Estimated
06:32PM 22.9891 -82.4091 180° South  Level Estimated
06:33PM 22.9891 -82.4091 180° South  Level Estimated
06:34PM 22.9891 -82.4091 180° South  Level Estimated
06:35PM 22.9891 -82.4091 180° South  Level Estimated
06:36PM 22.9891 -82.4091 180° South  Level Estimated
06:37PM 22.9891 -82.4091 180° South  Level Estimated
06:38PM 22.9891 -82.4091 180° South  Level Estimated
06:39PM 22.9891 -82.4091 180° South  Level Estimated
06:40PM 22.9891 -82.4091 180° South  Level Estimated
06:41PM 22.9891 -82.4091 180° South  Level Estimated
06:42PM 22.9891 -82.4091 180° South  Level Estimated
06:43PM 22.9891 -82.4091 180° South  Level Estimated